x

8447387 - Borden Flats Light At Fall River, Ma (bltm3) Weather Station

11:18 - Sat 20th Sep 2014 All times are EDT. -4 hours from GMT.

  • Wind
    7mph, 8mph gusts
  • Ar Temp 65°f
  • Sea Pressure 1019.5mb
  • 8447387 - Borden Flats Light At Fall River, Ma
  • 8447387 - Borden Flats Light At Fall River, Ma

More Historic Weather Station data

Upgrade to MSW Pro to gain access to the past 30 days of data for over 8000 Wavebouys and Weather Stations around the globe.

Join Pro

Comparision Forecast

View Surf forecast
   
Sáb 09/20 11:18 7 8 mph 1019.5mb 65f
11:12 8 9 mph 1019.5mb 65f
11:06 7 9 mph 1019.6mb 65f
11:00 7 8 mph 1019.7mb 65f
10:54 7 8 mph 1019.8mb 65f
10:48 6 7 mph 1019.9mb 65f
10:42 7 8 mph 1020mb 65f
10:36 7 8 mph 1020.1mb 65f
10:30 6 8 mph 1020.3mb 65f
10:24 5 6 mph 1020.3mb 65f
10:18 6 7 mph 1020.4mb 65f
10:12 6 7 mph 1020.4mb 65f
10:06 6
mph
1020.6mb 65f
10:00 5 7 mph 1020.6mb 65f
9:54 6 7 mph 1020.6mb 65f
9:48 6 7 mph 1020.6mb 65f
9:42 6 7 mph 1020.7mb 65f
9:36 3 6 mph 1020.8mb 65f
9:30 3 5 mph 1020.8mb 65f
9:24 2 3 mph 1020.9mb 66f
9:18 2 3 mph 1020.9mb 66f
9:12 5
mph
1020.9mb 66f
9:06 5 6 mph 1020.9mb 66f
9:00 5 6 mph 1020.9mb 66f
8:54 5 6 mph 1020.9mb 66f
8:48 5 6 mph 1020.9mb 65f
8:42 5 6 mph 1020.9mb 65f
8:36 5 6 mph 1021mb 66f
8:30 5 6 mph 1021mb 66f
8:24 5 6 mph 1021mb 66f
8:18 5 7 mph 1021mb 66f
8:12 5 7 mph 1021.1mb 66f
8:06 6 7 mph 1021mb 66f
8:00 6 8 mph 1021mb 66f
7:54 6 8 mph 1021mb 66f
7:48 6 8 mph 1020.9mb 67f
7:42 6
mph
1020.9mb 67f
7:36 5 6 mph 1020.8mb 67f
7:30 6 8 mph 1020.7mb 67f
7:24 8 10 mph 1020.7mb 67f
7:18 8 9 mph 1020.7mb 67f
7:12 8 11 mph 1020.8mb 67f
7:06 10 13 mph 1020.9mb 67f
7:00 9 14 mph 1020.9mb 68f
6:54 11 17 mph 1021mb 68f
6:48 11 15 mph 1021.1mb 68f
6:42 11 15 mph 1021.1mb 68f
6:36 13 16 mph 1021.1mb 68f
6:30 13 20 mph 1021.2mb 68f
6:24 15 17 mph 1021.2mb 69f
6:18 13 16 mph 1021.3mb 69f
6:12 16 21 mph 1021.4mb 69f
6:06 13 16 mph 1021.5mb 69f
6:00 17 22 mph 1021.5mb 69f
5:54 17 22 mph 1021.6mb 69f
5:48 18 22 mph 1021.6mb 69f
5:42 15 18 mph 1021.7mb 69f
5:36 16 21 mph 1021.8mb 69f
5:30 16 22 mph 1021.8mb 69f
5:24 16 22 mph 1021.7mb 69f
5:18 17 22 mph 1021.7mb 68f
5:12 14 18 mph 1021.8mb 68f
5:06 15 20 mph 1021.8mb 68f
5:00 15 20 mph 1021.8mb 68f
4:54 15 21 mph 1021.8mb 69f
4:48 15 21 mph 1021.8mb 69f
4:42 20 23 mph 1021.8mb 68f
4:36 15 21 mph 1022mb 69f
4:30 18 26 mph 1021.9mb 69f
4:24 14 20 mph 1021.9mb 69f
4:18 15 23 mph 1022mb 69f
4:12 15 20 mph 1022.2mb 69f
4:06 15 22 mph 1022.2mb 69f
4:00 17 24 mph 1022.2mb 69f
3:54 14 21 mph 1022.4mb 69f
3:48 17 21 mph 1022.4mb 68f
3:42 14 22 mph 1022.5mb 68f
3:36 15 20 mph 1022.5mb 68f
3:30 16 24 mph 1022.5mb 68f
3:24 17 24 mph 1022.5mb 68f
3:12 18 23 mph 1022.7mb 68f
3:06 13 21 mph 1022.9mb 69f
3:00 20 24 mph 1022.9mb 68f
2:54 17 22 mph 1023mb 68f
2:48 16 22 mph 1023mb 68f
2:42 17 23 mph 1023mb 68f
2:36 15 23 mph 1023.1mb 68f
2:30 17 21 mph 1023.1mb 68f
2:24 17 21 mph 1023.2mb 68f
2:18 15 21 mph 1023.3mb 68f
2:12 16 20 mph 1023.4mb 68f
2:06 13 17 mph 1023.5mb 67f
2:00 11 15 mph 1023.6mb 67f
1:54 13 16 mph 1023.6mb 67f
1:48 10 17 mph 1023.7mb 67f
1:42 14 16 mph 1023.8mb 67f
1:36 14 17 mph 1023.9mb 67f
1:30 9 14 mph 1024mb 67f
1:24 14 18 mph 1024.1mb 66f
1:18 9 13 mph 1024.4mb 66f
1:12 10 15 mph 1024.4mb 67f
1:06 9 14 mph 1024.6mb 66f
1:00 9 13 mph 1024.7mb 66f
12:54 14 20 mph 1024.9mb 66f
12:48 13 16 mph 1025mb 66f
12:42 16 21 mph 1025mb 66f
12:36 10 16 mph 1025.1mb 66f
12:30 11 17 mph 1025.3mb 65f
12:24 13 17 mph 1025.3mb 65f
12:18 10 15 mph 1025.5mb 66f
12:12 13 16 mph 1025.5mb 65f
12:06 11 15 mph 1025.6mb 65f
12:00 11 14 mph 1025.6mb 65f
11:54 11 15 mph 1025.6mb 65f
11:48 11 17 mph 1025.6mb 64f
11:42 13 16 mph 1025.7mb 64f
11:36 13 17 mph 1025.8mb 64f
11:30 14 17 mph 1025.7mb 64f
11:24 15 18 mph 1025.6mb 64f
11:18 14 17 mph 1025.7mb 64f
11:12 14 18 mph 1025.7mb 64f
11:06 11 16 mph 1025.7mb 64f
11:00 14 20 mph 1025.8mb 63f
10:54 11 16 mph 1025.9mb 64f
10:48 13 18 mph 1025.8mb 63f
10:42 16 22 mph 1025.8mb 63f
10:36 15 20 mph 1026.1mb 63f
10:30 14 17 mph 1026.3mb 63f
10:24 11 16 mph 1026.3mb 63f
10:18 14 20 mph 1026.2mb 63f
10:12 11 15 mph 1026.2mb 63f
10:06 9 14 mph 1026.4mb 63f
10:00 13 17 mph 1026.5mb 62f
9:54 13 15 mph 1026.4mb 62f
9:48 10 16 mph 1026.6mb 62f
9:42 10 15 mph 1026.6mb 62f
9:36 9 15 mph 1026.6mb 62f
9:30 7 10 mph 1026.7mb 62f
9:24 9 13 mph 1026.8mb 61f
9:18 9 13 mph 1026.8mb 61f
9:12 9 13 mph 1026.8mb 61f
9:06 9 13 mph 1026.9mb 61f
9:00 10 14 mph 1027mb 60f
8:54 8 11 mph 1027.1mb 60f
8:48 9 13 mph 1027.1mb 60f
8:42 6 9 mph 1027.1mb 60f
8:36 9 11 mph 1027mb 59f
8:30 8 11 mph 1027.1mb 58f
8:24 7 9 mph 1027.2mb 58f
8:18 8 10 mph 1027.2mb 57f
8:12 7 9 mph 1027.2mb 57f
8:06 7 10 mph 1027.4mb 57f
8:00 7 9 mph 1027.4mb 56f
7:54 8 10 mph 1027.4mb 56f
7:48 7 8 mph 1027.5mb 56f
7:42 7 10 mph 1027.5mb 56f
7:36 6 8 mph 1027.5mb 55f
7:30 5 6 mph 1027.6mb 55f
7:24 6 8 mph 1027.5mb 54f
7:18 7 8 mph 1027.5mb 53f
7:12 6 9 mph 1027.6mb 54f
7:06 5 7 mph 1027.7mb 54f
7:00 6 7 mph 1027.7mb 53f
6:54 6 7 mph 1027.8mb 53f
6:48 5 7 mph 1027.9mb 54f
6:42 6 7 mph 1028mb 53f
6:36 7 8 mph 1028mb 53f
6:30 6 8 mph 1028.1mb 54f
6:24 7 9 mph 1028.1mb 54f
6:18 5 7 mph 1028mb 54f
6:12 6 7 mph 1028.1mb 54f
6:06 6 7 mph 1028.1mb 54f
6:00 6 7 mph 1028.2mb 54f
5:54 7 8 mph 1028mb 54f
5:48 6 8 mph 1027.9mb 54f
5:42 6 7 mph 1028mb 53f
5:36 5 6 mph 1028mb 54f
5:30 6 8 mph 1028mb 53f
5:24 6 8 mph 1028mb 53f
5:18 7 8 mph 1028mb 53f
5:12 6 7 mph 1028.2mb 53f
5:06 6 8 mph 1028.1mb 53f
5:00 7
mph
1028.2mb 53f
4:54 7 9 mph 1028.2mb 53f
4:48 7 8 mph 1028.2mb 53f
4:42 7 9 mph 1028.2mb 53f
4:36 7 8 mph 1028.2mb 53f
4:30 7 9 mph 1028.2mb 53f
4:24 6 8 mph 1028.2mb 53f
4:18 5 6 mph 1028.4mb 53f
4:12 5 6 mph 1028.4mb 53f
4:06 3 5 mph 1028.3mb 53f
4:00 3 6 mph 1028.3mb 53f
3:54 5 6 mph 1028.4mb 53f
3:48 3 5 mph 1028.5mb 53f
3:42 5 6 mph 1028.6mb 53f
3:36 3 6 mph 1028.6mb 53f
3:30 3 6 mph 1028.7mb 53f
3:24 3 5 mph 1028.8mb 53f
3:18 3 5 mph 1028.8mb 53f
3:12 3 6 mph 1028.8mb 53f
3:06 3 5 mph 1028.8mb 53f
3:00 3 7 mph 1028.6mb 53f
2:54 5 6 mph 1028.6mb 53f
2:48 6 8 mph 1028.7mb 53f
2:42 6 8 mph 1028.7mb 53f
2:36 6 8 mph 1028.7mb 53f
2:30 8 11 mph 1028.5mb 53f
2:24 8 11 mph 1028.5mb 53f
2:18 8 10 mph 1028.5mb 53f
2:12 8 11 mph 1028.5mb 53f
2:06 8 10 mph 1028.4mb 53f
2:00 8 10 mph 1028.4mb 53f
1:54 8 10 mph 1028.5mb 53f
1:48 8 10 mph 1028.5mb 53f
1:42 10 13 mph 1028.5mb 53f
1:36 9 11 mph 1028.5mb 53f
1:30 9 11 mph 1028.6mb 53f
1:24 9 11 mph 1028.6mb 52f
1:18 9 11 mph 1028.6mb 52f
1:12 9 13 mph 1028.7mb 52f
1:06 9 11 mph 1028.7mb 52f
1:00  -  mph 1028.7mb -
12:54  -  mph 1028.8mb -
12:48  -  mph 1028.7mb 52f
12:42  -  mph 1028.8mb 52f
12:36  -  mph 1028.9mb 52f
12:30 8 10 mph 1029mb -
12:24 8 10 mph 1029.1mb 52f
12:18  -  mph 1029.1mb -
12:12  -  mph 1029.1mb -
12:06  -  mph 1029.1mb -
12:00  -  mph 1029.2mb -
Sex 09/19 11:54  -  mph 1029.3mb -
11:48 8 11 mph 1029.4mb 52f
11:42 9 11 mph 1029.5mb 52f
11:36 9 10 mph 1029.6mb 52f
11:30 7 9 mph 1029.7mb 52f
11:24 9 11 mph 1029.7mb 52f
11:18 8 10 mph 1029.8mb 53f
11:12 9 14 mph 1029.9mb 53f
11:06 8 10 mph 1030mb 53f
11:00 8 10 mph 1030.1mb 53f
10:54 8 10 mph 1030.1mb 53f
10:48 8 11 mph 1030.1mb 53f
10:42 8 11 mph 1030.1mb 53f
10:36 9 13 mph 1030.2mb 53f
10:30 9 13 mph 1030.1mb 53f
10:24 9 11 mph 1030.1mb 53f
10:18 9 10 mph 1030.1mb 53f
10:12 8 10 mph 1030.1mb 53f
10:06 9 11 mph 1030.1mb 53f
10:00 8 11 mph 1030.1mb 53f
9:54 9 11 mph 1030mb 53f
9:48 10 13 mph 1030mb 53f
9:42 9 14 mph 1030mb 53f
9:36 8 11 mph 1029.8mb 53f
9:30 9 11 mph 1029.9mb 53f
9:24 9 14 mph 1029.8mb 53f
9:18 9 13 mph 1029.9mb 53f
9:12 9 11 mph 1030mb 53f
9:06 9 11 mph 1030mb 53f
9:00 9 13 mph 1030mb 53f
8:54 9 11 mph 1030mb 53f
8:48 8 9 mph 1030mb 53f
8:42 8 10 mph 1029.9mb 53f
8:36 9 11 mph 1029.9mb 53f
8:30 9 11 mph 1029.9mb 54f
8:24 9 11 mph 1030mb 54f
8:18 9 13 mph 1030.1mb 54f
8:12 8 10 mph 1030.1mb 54f
8:06 9 13 mph 1030.1mb 54f
8:00 9 11 mph 1030.1mb 54f
7:54 9 11 mph 1029.9mb 54f
7:48 9 10 mph 1029.8mb 54f
7:42 9 11 mph 1029.7mb 55f
7:36 9 13 mph 1029.6mb 55f
7:30 8 10 mph 1029.5mb 55f
7:24 8 13 mph 1029.4mb 55f
7:18 8 10 mph 1029.3mb 55f
7:12 8 11 mph 1029.1mb 56f
7:06 9 11 mph 1029.1mb 56f
7:00 9 11 mph 1029mb 56f
6:54 9 11 mph 1029mb 56f
6:48 9 11 mph 1029mb 57f
6:42 9 11 mph 1029mb 57f
6:36 10 14 mph 1028.9mb 57f
6:30 10 14 mph 1028.9mb 58f
6:24 10 15 mph 1028.8mb 58f
6:18 11 16 mph 1028.9mb 58f
6:12 11 15 mph 1028.8mb 59f
6:06 9 13 mph 1028.8mb 59f
6:00 10 13 mph 1028.8mb 59f
5:54 9 13 mph 1028.7mb 60f
5:48 10 14 mph 1028.7mb 60f
5:42 10 14 mph 1028.7mb 60f
5:36 10 13 mph 1028.6mb 60f
5:30 9 14 mph 1028.6mb 59f
5:24 10 14 mph 1028.4mb 61f
5:18 9 14 mph 1028.4mb 62f
5:12 8 11 mph 1028.3mb 61f
5:06 10 14 mph 1028.2mb 61f
5:00 9 14 mph 1028.3mb 62f
4:54 9 11 mph 1028.3mb 62f
4:48 7 13 mph 1028.5mb 63f
4:42 9 11 mph 1028.5mb 62f
4:36 11 15 mph 1028.6mb 62f
4:30 9 13 mph 1028.6mb 61f
4:24 9 13 mph 1028.7mb 60f
4:18 11 14 mph 1028.5mb 62f
4:12 9 13 mph 1028.7mb 61f
4:06 11 14 mph 1028.5mb 60f
4:00 11 15 mph 1028.2mb 59f
3:54 10 15 mph 1028.3mb 61f
3:48 10 14 mph 1028.3mb 61f
3:42 10 14 mph 1028.3mb 61f
3:36 9 14 mph 1028.4mb 58f
3:30 8 14 mph 1028.5mb 62f
3:24 15 18 mph 1028.4mb 61f
3:18 9 15 mph 1028.4mb 60f
3:12 11 17 mph 1028.4mb 61f
3:06 9 17 mph 1028.4mb 61f
2:54 11 17 mph 1028.6mb 61f
2:48 11 15 mph 1028.6mb 61f
2:42 14 17 mph 1028.6mb 62f
2:36 14 18 mph 1028.5mb 62f
2:30 9 14 mph 1028.5mb 61f
2:24 11 20 mph 1028.4mb 62f
2:18 13 16 mph 1028.3mb 62f
2:12 14 18 mph 1028.3mb 62f
2:06 16 20 mph 1028.2mb 62f
2:00 10 15 mph 1028.3mb 61f
1:54 14 20 mph 1028.2mb 61f
1:48 13 18 mph 1028.1mb 62f
1:42 14 17 mph 1028mb 61f
1:36 14 22 mph 1028mb 61f
1:30 10 16 mph 1028.1mb 61f
1:24 15 20 mph 1028mb 61f
1:18 9 14 mph 1028.1mb 61f
1:12 11 16 mph 1028.1mb 60f
1:06 13 18 mph 1028mb 60f
1:00 13 17 mph 1028mb 60f
12:54 13 20 mph 1027.9mb 60f
12:48 15 20 mph 1027.9mb 60f
12:42 13 18 mph 1028mb 60f
12:36 14 17 mph 1028mb 60f
12:30 15 18 mph 1028mb 59f
12:24 11 16 mph 1028mb 60f
12:18 14 20 mph 1027.7mb 60f
12:12 10 16 mph 1027.8mb 59f
12:06 11 15 mph 1027.8mb 59f
12:00 15 18 mph 1027.7mb 58f
11:54 13 16 mph 1027.8mb 58f
11:48 10 14 mph 1027.9mb 58f
11:42 15 21 mph 1027.8mb 58f
11:36 13 16 mph 1027.8mb 58f
11:30 10 15 mph 1027.8mb 58f
11:24 10 15 mph 1027.8mb 58f
11:18 15 20 mph 1027.6mb 58f
11:12 13 16 mph 1027.8mb 57f
11:06 17 22 mph 1027.6mb 57f
11:00 13 17 mph 1027.7mb 58f
10:54 16 20 mph 1027.6mb 57f
10:48 13 15 mph 1027.8mb 57f
10:42 14 16 mph 1027.8mb 56f
10:36 15 20 mph 1027.7mb 57f
10:30 14 18 mph 1027.7mb 56f
10:24 14 18 mph 1027.7mb 56f
10:18 15 20 mph 1027.6mb 56f
10:12 14 18 mph 1027.6mb 56f
10:06 14 17 mph 1027.5mb 55f
10:00 15 21 mph 1027.5mb 55f
9:54 15 20 mph 1027.5mb 55f
9:48 16 20 mph 1027.4mb 56f
9:42 16 22 mph 1027.3mb 55f
9:36 17 21 mph 1027.3mb 56f
9:30 15 18 mph 1027.3mb 55f
9:24 17 23 mph 1027.2mb 55f
9:18 17 24 mph 1027.1mb 55f
9:12 15 18 mph 1027.1mb 55f
9:06 16 22 mph 1027mb 55f
9:00 17 22 mph 1026.9mb 54f
8:54 17 24 mph 1026.8mb 54f
8:48 14 18 mph 1026.8mb 55f
8:42 11 14 mph 1026.8mb 54f
8:36 13 15 mph 1026.7mb 54f
8:30 13 16 mph 1026.7mb 54f
8:24 11 17 mph 1026.5mb 54f
8:18 11 14 mph 1026.4mb 54f
8:12 14 17 mph 1026.2mb 53f
8:06 9 13 mph 1026.1mb 53f
8:00 10 16 mph 1026mb 53f
7:54 11 15 mph 1026mb 53f
7:48 11 15 mph 1025.9mb 53f
7:42 11 14 mph 1025.9mb 53f
7:36 11 14 mph 1025.8mb 52f
7:30 10 13 mph 1025.7mb 52f
7:24 8 11 mph 1025.7mb 52f
7:18 9 11 mph 1025.5mb 52f
7:12 8 11 mph 1025.5mb 51f
7:06 9 11 mph 1025.4mb 51f
7:00 9 11 mph 1025.2mb 51f
6:54 9 11 mph 1025.1mb 51f
6:48 9 11 mph 1025mb 51f
6:42 8 10 mph 1024.9mb 51f
6:36 8 11 mph 1024.8mb 52f
6:30 9 13 mph 1024.6mb 52f
6:24 9 11 mph 1024.5mb 52f
6:18 8 11 mph 1024.3mb 52f
6:12 8 11 mph 1024.2mb 52f
6:06 9 13 mph 1024.1mb 52f
6:00 8 10 mph 1024.1mb 52f
5:54 8 11 mph 1024mb 53f
5:48 9 10 mph 1023.9mb 53f
5:42 8 10 mph 1023.8mb 53f
5:36 8 11 mph 1023.7mb 53f
5:30 8 10 mph 1023.6mb 53f
5:24 9 13 mph 1023.4mb 53f
5:18 8 11 mph 1023.4mb 53f
5:12 6 10 mph 1023.4mb 53f
5:06 8 10 mph 1023.3mb 53f
5:00 8 11 mph 1023.1mb 53f
4:54 8 11 mph 1022.9mb 54f
4:48 8 11 mph 1022.8mb 54f
4:42 8 10 mph 1022.8mb 54f
4:36 9 11 mph 1022.7mb 54f
4:30 8 11 mph 1022.5mb 54f
4:24 8 13 mph 1022.4mb 55f
4:18 10 14 mph 1022.2mb 55f
4:12 10 15 mph 1022.1mb 55f
4:06 9 13 mph 1022.2mb 55f
4:00 9 14 mph 1022.1mb 55f
3:54 9 13 mph 1022.1mb 55f
3:48 9 13 mph 1022.1mb 55f
3:42 8 10 mph 1022mb 55f
3:36 9 11 mph 1022mb 55f
3:30 10 14 mph 1021.9mb 55f
3:24 9 14 mph 1021.9mb 56f
3:18 9 14 mph 1021.8mb 56f
3:12 8 11 mph 1021.7mb 56f
3:06 10 14 mph 1021.6mb 56f
3:00 11 15 mph 1021.5mb 56f
2:54 10 14 mph 1021.5mb 56f
2:48 13 16 mph 1021.4mb 56f
2:42 13 16 mph 1021.4mb 57f
2:36 10 14 mph 1021.4mb 57f
2:30 11 16 mph 1021.3mb 57f
2:24 10 14 mph 1021.3mb 57f
2:18 11 14 mph 1021.2mb 57f
2:12 10 13 mph 1021.1mb 58f
2:06 11 15 mph 1021.1mb 58f
2:00 10 15 mph 1021mb 58f
1:54 11 15 mph 1020.9mb 58f
1:48 11 16 mph 1020.8mb 59f
1:42 10 14 mph 1020.7mb 59f
1:36 13 17 mph 1020.6mb 59f
1:30 15 20 mph 1020.5mb 59f
1:24 16 22 mph 1020.3mb 60f
1:18 16 21 mph 1020.2mb 60f
1:12 15 20 mph 1020.1mb 60f
1:06 14 17 mph 1020.1mb 61f
1:00 15 20 mph 1020mb 61f
12:54 14 18 mph 1019.9mb 62f
12:48 14 20 mph 1019.7mb 62f
12:42 16 23 mph 1019.6mb 62f
12:36 16 22 mph 1019.5mb 63f
12:30 20 24 mph 1019.4mb 63f
12:24 20 22 mph 1019.3mb 63f
12:18 14 17 mph 1019.4mb 63f
12:12 15 21 mph 1019.3mb 63f
12:06 10 16 mph 1019.3mb 64f
12:00 13 16 mph 1019.2mb 64f
Qui 09/18 11:54 14 17 mph 1019mb 64f
11:48  -  mph 1018.9mb 64f
11:42  -  mph 1018.8mb 64f
11:36  -  mph 1018.7mb 64f
11:30 16 20 mph 1018.5mb 64f
11:24 16 21 mph 1018.5mb 65f
11:18 17 22 mph 1018.4mb 65f
11:12 16 18 mph 1018.4mb 65f
11:06 16 22 mph 1018.4mb 65f
11:00 16 21 mph 1018.4mb 65f
10:54 16 21 mph 1018.3mb 65f
10:48 16 24 mph 1018.2mb 66f
10:42 14 18 mph 1018.2mb 66f
10:36 13 17 mph 1018.1mb 66f
10:30 11 15 mph 1018mb -
10:24 13 18 mph 1017.8mb -
10:18 9 14 mph 1017.7mb 67f
10:12 8 13 mph 1017.7mb 67f
10:06 9 10 mph 1017.6mb 67f
10:00 8 11 mph 1017.6mb 67f
9:54 10 14 mph 1017.5mb 67f
9:48 10 13 mph 1017.4mb 67f
9:42 10 14 mph 1017.3mb 67f
9:36 7 9 mph 1017.1mb 68f
9:30 5 6 mph 1017mb 68f
9:24 5 6 mph 1016.9mb 68f
9:18 5 6 mph 1016.9mb 68f
9:12 3 5 mph 1016.8mb 68f
9:06 6 7 mph 1016.7mb 68f
9:00 6 8 mph 1016.6mb 68f
8:54 7 8 mph 1016.6mb 68f
8:48 7 8 mph 1016.6mb 68f
8:42 6 8 mph 1016.5mb 68f
8:36 8 10 mph 1016.4mb 68f
8:30 8 9 mph 1016.3mb 69f
8:24 8 9 mph 1016.3mb 69f
8:18 9 10 mph 1016.3mb 69f
8:12 7 8 mph 1016.2mb 69f
8:06 5 6 mph 1016.1mb 70f
8:00 6 7 mph 1016mb 70f
7:54 6 7 mph 1015.9mb 70f
7:48 6 7 mph 1015.8mb 70f
7:42 3 6 mph 1015.7mb 70f
7:36 6 8 mph 1015.7mb 70f
7:30 3 6 mph 1015.6mb 71f
7:24 3 6 mph 1015.6mb 70f
7:18 6 7 mph 1015.4mb 71f
7:12 5 8 mph 1015.4mb 71f
7:06 8 10 mph 1015.3mb 72f
7:00 9 11 mph 1015.2mb 72f
6:54 8 11 mph 1015mb 72f
6:48 8 9 mph 1015mb 73f
6:42 6 8 mph 1015mb 73f
6:36 7 9 mph 1014.9mb 74f
6:30 7 8 mph 1014.9mb 75f
6:24 7 8 mph 1014.8mb 75f
6:18 8 9 mph 1014.8mb 75f
6:12 8 10 mph 1014.8mb 75f
6:06 9 10 mph 1014.8mb 75f
6:00 8 10 mph 1014.6mb 76f
5:54 10 14 mph 1014.6mb 76f
5:48 11 14 mph 1014.5mb 76f
5:42 11 14 mph 1014.4mb 76f
5:36 10 14 mph 1014.4mb 76f
5:30 10 14 mph 1014.3mb 77f
5:24 10 13 mph 1014.3mb 78f
5:18 6 9 mph 1014.2mb 78f
5:12 5 8 mph 1014.2mb 78f
5:06 5 7 mph 1014.1mb 78f
5:00 3 6 mph 1014.1mb 77f
4:54 3 5 mph 1014mb 76f
4:48 5 6 mph 1014mb 76f
4:42 5 6 mph 1013.9mb 77f
4:36 5 6 mph 1013.9mb 76f
4:30 7
mph
1013.8mb 76f
4:24 5 8 mph 1013.8mb 75f
4:18  -  2 mph 1013.8mb 76f
4:12 2 3 mph 1013.7mb 79f
4:06 3 5 mph 1013.7mb 79f
4:00 2 5 mph 1013.7mb 78f
3:54 6 7 mph 1013.8mb 76f
3:48 7 8 mph 1013.8mb 75f
3:42 6 7 mph 1013.8mb 75f
3:36 2 5 mph 1013.9mb 76f
3:30 5 6 mph 1013.8mb 76f
3:24 6 7 mph 1013.8mb 75f
3:18 6 8 mph 1013.7mb 76f
3:12 8 10 mph 1013.7mb 76f
3:06 5 7 mph 1013.7mb 77f
3:00 3 6 mph 1013.6mb 78f
2:54 6 7 mph 1013.6mb 79f
2:48 2 5 mph 1013.6mb 79f
2:42 5 6 mph 1013.7mb 77f
2:36 6 7 mph 1013.7mb 77f
2:30 7 8 mph 1013.7mb 77f
2:24 6 8 mph 1013.6mb 75f
2:18 2 6 mph 1013.6mb 72f
2:12 6 11 mph 1013.7mb 72f
2:06 10 14 mph 1013.6mb 73f
2:00 7 10 mph 1013.8mb 73f
1:54 8 11 mph 1013.8mb 73f
1:48 5 7 mph 1013.9mb 71f
1:42 8 9 mph 1013.8mb 71f
1:36 5 9 mph 1013.9mb 73f
1:30 9 13 mph 1014mb 72f
1:24 8 14 mph 1014mb 72f
1:18 9 13 mph 1014.1mb 72f
1:12 7 8 mph 1014.1mb 70f
1:06 9 14 mph 1014.1mb 71f
1:00 6 9 mph 1014.2mb 72f
12:54 7 10 mph 1014.3mb 70f
12:48 7 10 mph 1014.3mb 70f
12:42 3 5 mph 1014.3mb 71f
12:36 7 9 mph 1014.3mb 71f
12:30 5 6 mph 1014.3mb 70f
12:24 3 6 mph 1014.3mb 71f
12:18 1 3 mph 1014.4mb 72f
12:12 5 7 mph 1014.4mb 70f
12:06 3 7 mph 1014.4mb 71f
12:00 5 8 mph 1014.4mb 70f
11:54 5 7 mph 1014.4mb 71f
11:48 7 10 mph 1014.4mb 70f
11:42 3 6 mph 1014.4mb 68f
11:36 8 11 mph 1014.4mb 68f
11:30 8 10 mph 1014.4mb 70f
11:24 9 14 mph 1014.4mb 70f
11:18 5 8 mph 1014.4mb 69f
11:12 9 10 mph 1014.5mb 68f
11:06 5 8 mph 1014.5mb 69f
11:00 9 13 mph 1014.5mb 68f
10:54 7 9 mph 1014.5mb 67f
10:48 8 11 mph 1014.5mb 66f
10:42 6 9 mph 1014.6mb 65f
10:36 5 6 mph 1014.7mb 65f
10:30 5 6 mph 1014.8mb 65f
10:24 6 7 mph 1014.8mb 64f
10:18 6 8 mph 1014.9mb 64f
10:12 5 7 mph 1014.9mb 64f
10:06 5 7 mph 1014.9mb 63f
10:00 3 5 mph 1015mb 63f
9:54 2 3 mph 1015.1mb 62f
9:48 3 5 mph 1015.1mb 62f
9:42 3 5 mph 1015.1mb 61f
9:36 3
mph
1015.2mb 61f
9:30 3
mph
1015.1mb 60f
9:24 2 5 mph 1015.1mb 60f
9:18 3 5 mph 1015.1mb 60f
9:12 2 3 mph 1015.1mb 60f
9:06 2 3 mph 1015.2mb 60f
9:00 3 5 mph 1015.1mb 59f
8:54 3 5 mph 1015.2mb 59f
8:48 3
mph
1015.2mb 59f
8:42 3 5 mph 1015.1mb 59f
8:36 5 6 mph 1015.1mb 59f
8:30 3 5 mph 1015.1mb 58f
8:24 3 5 mph 1015mb 58f
8:18 2 3 mph 1015mb 58f
8:12 3
mph
1015mb 58f
8:06 3
mph
1014.9mb 58f
8:00 3 5 mph 1014.9mb 58f
7:54 3 5 mph 1014.8mb 58f
7:48 3 5 mph 1014.8mb 58f
7:42 3 5 mph 1014.7mb 58f
7:36 3 5 mph 1014.7mb 58f
7:30 5
mph
1014.6mb 58f
7:24 3 5 mph 1014.6mb 58f
7:18 1 2 mph 1014.6mb 58f
7:12  -  1 mph 1014.5mb 58f
7:06 1 2 mph 1014.4mb 58f
7:00 1
mph
1014.4mb 58f
6:54 1 2 mph 1014.3mb 58f
6:48 1 2 mph 1014.3mb 57f
6:42 2 3 mph 1014.3mb 58f
6:36 2
mph
1014.2mb 58f
6:30 1 2 mph 1014.2mb 58f
6:24 2 3 mph 1014.2mb 58f
6:18  -  2 mph 1014.2mb 58f
6:12  -  mph 1014.2mb 57f
6:06  -  1 mph 1014.2mb 57f
6:00  -  1 mph 1014.2mb 57f
5:54  -  1 mph 1014.2mb 56f
5:48 1 2 mph 1014.2mb 57f
5:42 2 3 mph 1014.3mb 57f
5:36 3 5 mph 1014.2mb 57f
5:30 3 5 mph 1014.2mb 57f
5:24 3 5 mph 1014.2mb 57f
5:18 3 5 mph 1014.2mb 57f
5:12 5 6 mph 1014.1mb 57f
5:06 1 3 mph 1014mb 58f
5:00 1 2 mph 1014mb 57f
4:54  -  1 mph 1014mb 57f
4:48  -  1 mph 1014mb 57f
4:42 1 2 mph 1014mb 57f
4:36 2
mph
1013.9mb 57f
4:30 2 3 mph 1013.8mb 57f
4:24 1 3 mph 1013.8mb 57f
4:18 2
mph
1013.7mb 57f
4:12 2 3 mph 1013.7mb 57f
4:06 2 3 mph 1013.6mb 57f
4:00 2 3 mph 1013.6mb 57f
3:54 3 5 mph 1013.6mb 58f
3:48 2 3 mph 1013.6mb 58f
3:42 2 3 mph 1013.5mb 58f
3:36 2 3 mph 1013.5mb 58f
3:30 2 5 mph 1013.5mb 58f
3:24 2
mph
1013.5mb 58f
3:18 2 3 mph 1013.4mb 58f
3:12 2 3 mph 1013.5mb 59f
3:06 3 5 mph 1013.5mb 59f
3:00 3 5 mph 1013.5mb 59f
2:54 1 3 mph 1013.5mb 59f
2:48 1 2 mph 1013.5mb 59f
2:42 2 3 mph 1013.5mb 59f
2:36 1 2 mph 1013.6mb 59f
2:30 1 2 mph 1013.7mb 59f
2:24 1 2 mph 1013.7mb 60f
2:18 1 2 mph 1013.7mb 60f
2:12 2 3 mph 1013.8mb 59f
2:06  -  1 mph 1013.8mb 60f
2:00 1 2 mph 1013.9mb 60f
1:54 2
mph
1014mb 60f
1:48 1 2 mph 1014.1mb 60f
1:42 2
mph
1014.1mb 60f
1:36 2 3 mph 1014.1mb 60f
1:30 1 2 mph 1014.2mb 60f
1:24 1 2 mph 1014.2mb 60f
1:18 1 2 mph 1014.2mb 61f
1:12 1 2 mph 1014.2mb 61f
1:06 1 2 mph 1014.2mb 61f
1:00 1 2 mph 1014.2mb 61f
12:54 1 2 mph 1014.2mb 61f
12:48 1 2 mph 1014.2mb 61f
12:42  -  1 mph 1014.3mb 61f
12:36 1 2 mph 1014.3mb 62f
12:30  -  1 mph 1014.4mb 62f
12:24  -  mph 1014.5mb 62f
12:18  -  1 mph 1014.5mb 62f
12:12 1 2 mph 1014.5mb 62f
12:06  -  1 mph 1014.5mb 62f
12:00  -  2 mph 1014.5mb 62f
Qua 09/17 11:54  -  1 mph 1014.5mb 62f
11:48 1 2 mph 1014.5mb 62f
11:42 2
mph
1014.6mb 62f
11:36 2 3 mph 1014.6mb 62f
11:30 2 3 mph 1014.6mb 63f
11:24  -  1 mph 1014.6mb 63f
11:18  -  1 mph 1014.7mb 63f
11:12 1 2 mph 1014.7mb 63f
11:06 1 2 mph 1014.8mb 63f
11:00 1 2 mph 1014.8mb 63f
10:54 2
mph
1014.8mb 63f
10:48  -  1 mph 1014.9mb 63f
10:42 1 2 mph 1014.9mb 63f
10:36 1 2 mph 1014.9mb 63f
10:30 1 2 mph 1014.9mb 63f
10:24 2 5 mph 1014.8mb 63f
10:18 3 5 mph 1014.8mb 63f
10:12 5 6 mph 1014.9mb 64f
10:06 6 7 mph 1014.9mb 64f
10:00 6 7 mph 1014.9mb 64f
9:54 7 8 mph 1014.9mb 64f
9:48 7 8 mph 1014.9mb 64f
9:42 6 7 mph 1014.9mb 65f
9:36 6 8 mph 1014.9mb 65f
9:30 7 8 mph 1014.9mb 65f
9:24 8 9 mph 1014.9mb 65f
9:18 9 10 mph 1014.9mb 65f
9:12 10 13 mph 1014.8mb 65f
9:06 10 13 mph 1014.8mb 65f
9:00 8 10 mph 1014.8mb 65f
8:54 8 10 mph 1014.8mb 65f
8:48 10 13 mph 1014.8mb 65f
8:42 9 11 mph 1014.8mb 65f
8:36 9 10 mph 1014.7mb 65f
8:30 9 11 mph 1014.6mb 65f
8:24 9 10 mph 1014.6mb 65f
8:18 9 10 mph 1014.6mb 65f
8:12 10 13 mph 1014.5mb 66f
8:06 8 13 mph 1014.4mb 66f
8:00 11 15 mph 1014.4mb 66f
7:54 10 14 mph 1014.4mb 65f
7:48 9 13 mph 1014.4mb 65f
7:42 9 11 mph 1014.3mb 66f
7:36 10 13 mph 1014.3mb 66f
7:30 10 14 mph 1014.3mb 66f
7:24 10 14 mph 1014.2mb 66f
7:18 11 15 mph 1014.1mb 66f
7:12 11 15 mph 1014.1mb 66f
7:06 10 14 mph 1014.1mb 66f
7:00 10 14 mph 1014.1mb 66f
6:54 11 14 mph 1014mb 66f
6:48 13 15 mph 1014mb 67f
6:42 14 16 mph 1013.9mb 67f
6:36 9 14 mph 1013.9mb 67f
6:30 11 14 mph 1013.9mb 67f
6:24 15 17 mph 1013.8mb 67f
6:18 13 16 mph 1013.9mb 67f
6:12 14 17 mph 1013.8mb 68f
6:06 13 17 mph 1013.8mb 68f
6:00 11 16 mph 1013.8mb 68f
5:54 11 16 mph 1013.7mb 68f
5:48 13 15 mph 1013.7mb 68f
5:42 10 13 mph 1013.7mb 68f
5:36 11 14 mph 1013.7mb 68f
5:30 13 15 mph 1013.6mb 68f
5:24 11 14 mph 1013.5mb 68f
5:18 14 15 mph 1013.5mb 68f
5:12 13 16 mph 1013.5mb 68f
5:06 13 16 mph 1013.4mb 68f
5:00 14 17 mph 1013.4mb 68f
4:54 14 17 mph 1013.4mb 68f
4:48 14 17 mph 1013.4mb 68f
4:42 14 18 mph 1013.4mb 68f
4:36 13 15 mph 1013.5mb 68f
4:30 14 17 mph 1013.5mb 68f
4:24 14 16 mph 1013.5mb 68f
4:18 15 17 mph 1013.5mb 68f
4:12 14 16 mph 1013.6mb 68f
4:06 13 16 mph 1013.6mb 68f
4:00 14 16 mph 1013.6mb 69f
3:54 11 14 mph 1013.7mb 69f
3:48 10 13 mph 1013.7mb 69f
3:42 11 14 mph 1013.7mb 69f
3:36 10 14 mph 1013.8mb 69f
3:30 8 9 mph 1013.9mb 69f
3:24 10 11 mph 1013.9mb 69f
3:18 10 14 mph 1014mb 69f
3:12 9 13 mph 1014.1mb 69f
3:06 10 11 mph 1014mb 69f
3:00 11 14 mph 1014mb 69f
2:54 8 11 mph 1014mb 69f
2:48 7
mph
1013.9mb 70f
2:42 8 10 mph 1013.9mb 69f
2:36 7 10 mph 1014mb 69f
2:30 7 8 mph 1014.1mb 69f
2:24 5 7 mph 1014mb 69f
2:18 7 8 mph 1014.1mb 69f
2:12 5 6 mph 1014.2mb 69f
2:06 7 8 mph 1014.2mb 68f
2:00 7 8 mph 1014.3mb 68f
1:54 7 9 mph 1014.3mb 68f
1:48 9 10 mph 1014.4mb 67f
1:42 7 9 mph 1014.4mb 67f
1:36 7 8 mph 1014.5mb 68f
1:30 7 8 mph 1014.5mb 67f
1:24 7 9 mph 1014.7mb 67f
1:18 6 7 mph 1014.8mb 68f
1:12 5 6 mph 1014.9mb 67f
1:06 6 8 mph 1015mb 67f
1:00 6 7 mph 1014.9mb 67f
12:54 5 6 mph 1015mb 67f
12:48 7 8 mph 1015.1mb 66f
12:42 7 8 mph 1015.2mb 66f
12:36 7 8 mph 1015.2mb 66f
12:30 7 9 mph 1015.3mb 66f
12:24 6 8 mph 1015.3mb 65f
12:18 5 6 mph 1015.4mb 66f
12:12 5 6 mph 1015.5mb 66f
12:06 2 5 mph 1015.6mb 66f
12:00 2 3 mph 1015.6mb 65f
11:54 3 5 mph 1015.7mb 65f
11:48 5 6 mph 1015.7mb 65f
11:42 5 7 mph 1015.8mb 64f
11:36 6 7 mph 1015.8mb 64f
11:30 6 8 mph 1015.8mb 64f
11:24 6 8 mph 1015.9mb 64f
11:18 6 7 mph 1015.9mb 63f
11:12 7 8 mph 1016mb 63f
11:06 6 7 mph 1016.1mb 63f
11:00 6
mph
1016.1mb 63f
10:54 5 6 mph 1016mb 63f
10:48 2 5 mph 1016mb 63f
10:42 3
mph
1016.1mb 63f
10:36 1 2 mph 1016.1mb 62f
10:30 2 3 mph 1016.2mb 62f
10:24  -  2 mph 1016.2mb 63f
10:18  -  2 mph 1016.3mb 63f
10:12 1 2 mph 1016.3mb 64f
10:06 3 5 mph 1016.3mb 63f
10:00 3 5 mph 1016.3mb 64f
9:54 5 7 mph 1016.3mb 63f
9:48 5 7 mph 1016.3mb 63f
9:42 7 9 mph 1016.3mb 62f
9:36 7 9 mph 1016.4mb 62f
9:30 7 8 mph 1016.4mb 62f
9:24 7 9 mph 1016.4mb 62f
9:18 7 9 mph 1016.5mb 61f
9:12 7 9 mph 1016.4mb 61f
9:06 6 7 mph 1016.4mb 61f
9:00 6 7 mph 1016.4mb 61f
8:54 3 6 mph 1016.4mb 61f
8:48 2 3 mph 1016.5mb 60f
8:42 1 2 mph 1016.4mb 60f
8:36 2 5 mph 1016.4mb 59f
8:30 2 5 mph 1016.5mb 59f
8:24 3 5 mph 1016.5mb 59f
8:18 2 5 mph 1016.5mb 58f
8:12 2 5 mph 1016.4mb 58f
8:06 2 3 mph 1016.3mb 58f
8:00 2 3 mph 1016.3mb 59f
7:54 3 6 mph 1016.4mb 59f
7:48 1 2 mph 1016.4mb 59f
7:42  -  3 mph 1016.4mb 58f
7:36 2 3 mph 1016.4mb 58f
7:30 3 5 mph 1016.4mb 58f
7:24 3 6 mph 1016.4mb 58f
7:18 3 6 mph 1016.4mb 58f
7:12 2 6 mph 1016.3mb 57f
7:06 2 5 mph 1016.2mb 58f
7:00 2 3 mph 1016.2mb 57f
6:54  -  2 mph 1016.2mb 57f
6:48 2 3 mph 1016.1mb 57f
6:42 3 6 mph 1016.1mb 56f
6:36  -  3 mph 1016mb 56f
6:30 2 5 mph 1016mb 56f
6:24 1 3 mph 1016mb 56f
6:18 2 5 mph 1015.9mb 56f
6:12 2 3 mph 1015.8mb 56f
6:06 2 5 mph 1015.7mb 57f
6:00 2 3 mph 1015.7mb 57f
5:54 2 3 mph 1015.6mb 57f
5:48 3 6 mph 1015.6mb 57f
5:42 3 5 mph 1015.6mb 57f
5:36 3 5 mph 1015.6mb 58f
5:30 5 7 mph 1015.5mb 58f
5:24 5 6 mph 1015.5mb 58f
5:18 2 3 mph 1015.5mb 58f
5:12 3 5 mph 1015.5mb 58f
5:06 1 3 mph 1015.5mb 58f
5:00 2 5 mph 1015.5mb 57f
4:54 2 5 mph 1015.4mb 57f
4:48 1 3 mph 1015.3mb 58f
4:42 1 3 mph 1015.4mb 58f
4:36  -  1 mph 1015.3mb 58f
4:30 1 3 mph 1015.3mb 58f
4:24 3 5 mph 1015.2mb 58f
4:18 3 5 mph 1015.2mb 58f
4:12 1 3 mph 1015.2mb 58f
4:06 1 2 mph 1015.2mb 58f